WetterOnline ( https://www.wetteronline.ch )

Wetter aktuell Feldberg (Gipfel)

Aktuelles Wetter: Feldberg/Schwarzwald (1493m)

6-stündlich | Neueste Meldungen
Ortszeit Temperatur Wetter
Mo, 04.07. 8:00 11.5° C Nebel
Mo, 04.07. 2:00 14.4° C bewölkt
So, 03.07. 20:00 17.7° C leicht bewölkt
So, 03.07. 14:00 17.9° C leicht bewölkt
So, 03.07. 8:00 13.1° C wolkenlos
So, 03.07. 2:00 13.7° C wolkenlos
Sa, 02.07. 20:00 17.0° C wolkenlos
Sa, 02.07. 14:00 14.6° C wolkenlos
Ortszeit Temperatur Wetter
Mo, 04.07. 11:30 13.4° C wolkig
Mo, 04.07. 11:20 13.4° C wolkig
Mo, 04.07. 11:10 13.5° C leicht bewölkt
Mo, 04.07. 11:00 13.4° C leicht bewölkt
Mo, 04.07. 10:50 13.4° C leicht bewölkt
Mo, 04.07. 10:40 13.4° C leicht bewölkt
Mo, 04.07. 10:30 12.9° C leicht bewölkt
Mo, 04.07. 10:00 11.9° C Nebel
Mo, 04.07. 9:30 11.5° C Nebel
Mo, 04.07. 9:00 11.5° C Nebel
Mo, 04.07. 8:30 11.4° C Nebel
Ortszeit Relative Feuchte Sichtweite
Mo, 04.07. 8:00 100% <100 m
Mo, 04.07. 2:00 70% >70 km
So, 03.07. 20:00 55% >70 km
So, 03.07. 14:00 61% 50 km
So, 03.07. 8:00 54% 60 km
So, 03.07. 2:00 71% 55 km
Sa, 02.07. 20:00 58% 40 km
Sa, 02.07. 14:00 64% 50 km
Ortszeit Relative Feuchte Sichtweite
Mo, 04.07. 11:30 87% 55 km
Mo, 04.07. 11:20 87% -
Mo, 04.07. 11:10 87% -
Mo, 04.07. 11:00 88% 45 km
Mo, 04.07. 10:50 88% -
Mo, 04.07. 10:40 84% -
Mo, 04.07. 10:30 88% 45 km
Mo, 04.07. 10:00 95% 45 km
Mo, 04.07. 9:30 98% 40 km
Mo, 04.07. 9:00 99% <100 m
Mo, 04.07. 8:30 100% <100 m
Ortszeit Niederschlagsmenge Niederschlagsart
Mo, 04.07. 8:00 0.3 l/m2 in 12 Std. Regen, Niederschlag
Mo, 04.07. 2:00 0.3 l/m2 in 6 Std. Regen
So, 03.07. 20:00 0.0 l/m2 in 12 Std. -
So, 03.07. 14:00 0.0 l/m2 in 6 Std. -
So, 03.07. 8:00 0.0 l/m2 in 12 Std. -
So, 03.07. 2:00 0.0 l/m2 in 6 Std. -
Sa, 02.07. 20:00 0.0 l/m2 in 12 Std. -
Sa, 02.07. 14:00 0.0 l/m2 in 6 Std. -
Ortszeit Niederschlagsmenge Niederschlagsart
Mo, 04.07. 11:30 0.0 l/m2 in 1 Std. -
Mo, 04.07. 11:20 keine Meldung -
Mo, 04.07. 11:10 keine Meldung -
Mo, 04.07. 11:00 0.0 l/m2 in 1 Std. Niederschlag
Mo, 04.07. 10:50 keine Meldung -
Mo, 04.07. 10:40 keine Meldung -
Mo, 04.07. 10:30 0.0 l/m2 in 1 Std. -
Mo, 04.07. 10:00 0.0 l/m2 in 1 Std. -
Mo, 04.07. 9:30 0.0 l/m2 in 1 Std. -
Mo, 04.07. 9:00 0.1 l/m2 in 1 Std. Niederschlag
Mo, 04.07. 8:30 0.0 l/m2 in 1 Std. -
Ortszeit Stärke Spitze Richtung
km/h Bft. km/h Grad Sektor
Mo, 04.07. 8:00 30 5 48 200° S
Mo, 04.07. 2:00 7 2 32 280° W
So, 03.07. 20:00 19 3 46 270° W
So, 03.07. 14:00 15 3 46 260° W
So, 03.07. 8:00 39 6 54 230° SW
So, 03.07. 2:00 33 5 37 220° SW
Sa, 02.07. 20:00 7 2 22 190° S
Sa, 02.07. 14:00 11 2 43 100° O
Ortszeit Stärke Spitze Richtung
km/h Bft. km/h Grad Sektor
Mo, 04.07. 11:30 19 3 28 250° W
Mo, 04.07. 11:20 19 3 - 250° W
Mo, 04.07. 11:10 20 4 - 240° SW
Mo, 04.07. 11:00 14 3 40 270° W
Mo, 04.07. 10:50 14 3 - 270° W
Mo, 04.07. 10:40 19 3 - 240° SW
Mo, 04.07. 10:30 20 4 39 250° W
Mo, 04.07. 10:00 32 5 43 240° SW
Mo, 04.07. 9:30 31 5 44 220° SW
Mo, 04.07. 9:00 33 5 43 210° SW
Mo, 04.07. 8:30 14 3 32 190° S
Ortszeit Untergrenze Bedeckung Gattung
total tief tief mittel hoch
Mo, 04.07. 8:00 <30 m 8/8 0/8 - - -
Mo, 04.07. 2:00 1500 m 8/8 6/8 - - -
So, 03.07. 20:00 2100 m 3/8 3/8 - - -
So, 03.07. 14:00 1200 m 4/8 4/8 - - -
So, 03.07. 8:00 - 0/8 0/8 - - -
So, 03.07. 2:00 - 0/8 0/8 - - -
Sa, 02.07. 20:00 - 0/8 0/8 - - -
Sa, 02.07. 14:00 - 0/8 0/8 - - -
Ortszeit Bedeckungsgrad in Achtel und Wolkenuntergrenze
Mo, 04.07. 11:30 3(300m) 5(420m) 5(540m)
Mo, 04.07. 11:20 3(300m) 5(420m) 5(540m)
Mo, 04.07. 11:10 4
Mo, 04.07. 11:00 3(300m)
Mo, 04.07. 10:50 3(300m)
Mo, 04.07. 10:40 3
Mo, 04.07. 10:30 1(270m) 3(3000m)
Mo, 04.07. 10:00 2(30m) 7(3600m) 7(4800m)
Mo, 04.07. 9:30 2(<30m) 7(2700m) 7(3300m)
Mo, 04.07. 9:00 7(<30m) 8(2100m)
Mo, 04.07. 8:30 7(<30m) 8(2100m) 8(5100m)
Ortszeit Stationsdruck (hPa) Tendenz (hPa in 3 Std.)
Mo, 04.07. 8:00 855 - 0,3
Mo, 04.07. 2:00 856 - 1,0
So, 03.07. 20:00 856 - 0,7
So, 03.07. 14:00 857 0,0
So, 03.07. 8:00 856 + 0,6
So, 03.07. 2:00 856 - 0,4
Sa, 02.07. 20:00 856 - 0,4
Sa, 02.07. 14:00 857 + 0,3
Ortszeit Stationsdruck (hPa) Tendenz (hPa in 3 Std.)
Mo, 04.07. 11:30 856 + 0,2
Mo, 04.07. 11:20 856 keine Meldung
Mo, 04.07. 11:10 856 keine Meldung
Mo, 04.07. 11:00 856 + 0,3
Mo, 04.07. 10:50 856 keine Meldung
Mo, 04.07. 10:40 855 keine Meldung
Mo, 04.07. 10:30 855 - 0,7
Mo, 04.07. 10:00 855 - 0,4
Mo, 04.07. 9:30 856 + 0,2
Mo, 04.07. 9:00 855 + 0,3
Mo, 04.07. 8:30 856 + 0,4
Ortszeit Schneehöhe (cm)
Mo, 04.07. 8:00 0
Mo, 04.07. 2:00 0
So, 03.07. 20:00 0
So, 03.07. 14:00 0
So, 03.07. 8:00 0
So, 03.07. 2:00 0
Sa, 02.07. 20:00 0
Sa, 02.07. 14:00 0
Ortszeit Schneehöhe (cm)
Mo, 04.07. 11:30 0
Mo, 04.07. 11:20 0
Mo, 04.07. 11:10 0
Mo, 04.07. 11:00 0
Mo, 04.07. 10:50 0
Mo, 04.07. 10:40 0
Mo, 04.07. 10:30 0
Mo, 04.07. 10:00 0
Mo, 04.07. 9:30 0
Mo, 04.07. 9:00 0
Mo, 04.07. 8:30 0
Link zu dieser Seite / Seite empfehlen

Das Wetter in ...